Time;durP1;ratioP1;P1;durP2;ratioP2;P2;SDS_P1;SDS_P2;PMS_P1;PMS_P2;Temp;Humidity;BMP_temperature;BMP_pressure;BME280_temperature;BME280_humidity;BME280_pressure;Samples;Min_cycle;Max_cycle;Signal;HPM_P1;HPM_P2
2021/07/28 00:01:27;;;;;;;25.85;17.58;;;;;;;;;;5034496;28;20036;-65
2021/07/28 00:03:53;;;;;;;23.73;17.30;;;;;;;;;;5037533;28;20048;-64
2021/07/28 00:06:20;;;;;;;30.23;17.23;;;;;;;;;;5033864;28;20456;-64
2021/07/28 00:08:46;;;;;;;28.10;19.23;;;;;;;;;;5037796;28;20033;-64
2021/07/28 00:11:12;;;;;;;28.30;19.48;;;;;;;;;;5036936;28;20048;-64
2021/07/28 00:13:38;;;;;;;31.20;19.75;;;;;;;;;;5036601;28;20673;-64
2021/07/28 00:16:09;;;;;;;33.50;20.60;;;;;;;;;;5035495;28;20025;-64
2021/07/28 00:18:43;;;;;;;24.00;18.52;;;;;;;;;;5034597;28;20029;-65
2021/07/28 00:23:54;;;;;;;31.77;20.90;;;;;;;;;;5035022;28;20037;-64
2021/07/28 00:26:20;;;;;;;32.65;22.52;;;;;;;;;;5034385;28;20042;-64
2021/07/28 00:28:45;;;;;;;34.67;21.98;;;;;;;;;;5032202;28;20515;-64
2021/07/28 00:31:12;;;;;;;33.13;22.88;;;;;;;;;;5033512;28;20022;-64
2021/07/28 00:33:37;;;;;;;36.53;21.52;;;;;;;;;;5037946;28;20025;-64
2021/07/28 00:36:03;;;;;;;34.17;21.50;;;;;;;;;;5031795;28;20094;-64
2021/07/28 00:38:30;;;;;;;36.05;24.23;;;;;;;;;;5034900;28;20029;-64
2021/07/28 00:40:55;;;;;;;32.70;22.55;;;;;;;;;;5037354;28;20086;-64
2021/07/28 00:43:24;;;;;;;39.42;23.13;;;;;;;;;;5038102;28;20029;-64
2021/07/28 00:45:50;;;;;;;36.03;23.67;;;;;;;;;;5034280;28;20411;-64
2021/07/28 00:48:16;;;;;;;43.10;25.67;;;;;;;;;;5032862;28;20096;-64
2021/07/28 00:50:42;;;;;;;42.15;25.08;;;;;;;;;;5037162;28;20108;-64
2021/07/28 00:53:17;;;;;;;37.42;24.27;;;;;;;;;;5036115;28;20109;-64
2021/07/28 00:55:43;;;;;;;40.53;26.63;;;;;;;;;;5037331;28;20041;-64
2021/07/28 00:58:09;;;;;;;39.97;26.67;;;;;;;;;;5032879;28;20108;-64
2021/07/28 01:00:35;;;;;;;42.72;27.13;;;;;;;;;;5033044;28;20093;-64
2021/07/28 01:03:01;;;;;;;44.97;26.98;;;;;;;;;;5035975;28;20366;-64
2021/07/28 01:05:27;;;;;;;41.33;27.42;;;;;;;;;;5035248;28;20112;-64
2021/07/28 01:07:54;;;;;;;43.78;26.23;;;;;;;;;;5036003;28;20018;-64
2021/07/28 01:10:20;;;;;;;39.75;25.52;;;;;;;;;;5033932;28;20036;-64
2021/07/28 01:12:51;;;;;;;39.70;25.98;;;;;;;;;;5038315;28;20096;-64
2021/07/28 01:18:03;;;;;;;40.78;25.58;;;;;;;;;;5031660;28;20140;-64
2021/07/28 01:20:40;;;;;;;42.30;25.27;;;;;;;;;;5033220;28;20090;-64
2021/07/28 01:23:09;;;;;;;40.78;25.38;;;;;;;;;;5030622;28;20022;-64
2021/07/28 01:25:35;;;;;;;43.03;26.38;;;;;;;;;;5034745;28;20184;-64
2021/07/28 01:28:02;;;;;;;41.58;26.58;;;;;;;;;;5038216;28;20029;-64
2021/07/28 01:30:29;;;;;;;49.35;29.42;;;;;;;;;;5031239;28;20025;-65
2021/07/28 01:32:55;;;;;;;44.05;27.33;;;;;;;;;;5036093;28;20033;-64
2021/07/28 01:35:22;;;;;;;43.38;27.65;;;;;;;;;;5032427;28;20025;-64
2021/07/28 01:37:48;;;;;;;41.40;25.30;;;;;;;;;;5033499;28;20492;-64
2021/07/28 01:40:14;;;;;;;41.28;26.52;;;;;;;;;;5035298;28;20496;-65
2021/07/28 01:42:44;;;;;;;42.08;26.95;;;;;;;;;;5037814;28;20052;-64
2021/07/28 01:45:10;;;;;;;42.63;28.85;;;;;;;;;;5031742;28;20507;-64
2021/07/28 01:47:36;;;;;;;48.00;28.58;;;;;;;;;;5033292;28;20488;-64
2021/07/28 01:50:02;;;;;;;45.15;28.70;;;;;;;;;;5039052;28;20029;-64
2021/07/28 01:52:28;;;;;;;51.97;29.17;;;;;;;;;;5033851;28;20111;-64
2021/07/28 01:54:54;;;;;;;46.88;26.63;;;;;;;;;;5036287;28;20025;-64
2021/07/28 01:57:20;;;;;;;51.30;29.25;;;;;;;;;;5032357;28;20427;-64
2021/07/28 01:59:46;;;;;;;52.47;30.60;;;;;;;;;;5034086;28;20031;-64
2021/07/28 02:02:12;;;;;;;64.32;34.20;;;;;;;;;;5034216;28;20037;-64
2021/07/28 02:04:38;;;;;;;45.33;28.35;;;;;;;;;;5033675;28;20029;-64
2021/07/28 02:07:04;;;;;;;51.83;29.05;;;;;;;;;;5033259;28;20068;-64
2021/07/28 02:09:30;;;;;;;45.58;28.77;;;;;;;;;;5031643;28;20052;-64
2021/07/28 02:11:56;;;;;;;58.00;32.50;;;;;;;;;;5033173;28;20068;-64
2021/07/28 02:14:22;;;;;;;57.47;31.83;;;;;;;;;;5042772;28;20102;-64
2021/07/28 02:16:48;;;;;;;44.60;29.35;;;;;;;;;;5035155;28;20040;-64
2021/07/28 02:19:14;;;;;;;55.70;30.10;;;;;;;;;;5036581;28;20530;-65
2021/07/28 02:21:40;;;;;;;55.00;30.85;;;;;;;;;;5035946;28;20091;-64
2021/07/28 02:24:06;;;;;;;52.08;29.75;;;;;;;;;;5040363;28;20484;-64
2021/07/28 02:26:32;;;;;;;63.25;31.83;;;;;;;;;;5046529;28;20045;-64
2021/07/28 02:28:58;;;;;;;73.38;33.83;;;;;;;;;;5057380;28;20498;-64
2021/07/28 02:31:24;;;;;;;56.97;31.63;;;;;;;;;;5062715;28;20050;-64
2021/07/28 02:33:50;;;;;;;65.53;34.70;;;;;;;;;;5058311;28;20494;-65
2021/07/28 02:36:16;;;;;;;72.18;33.30;;;;;;;;;;5061278;28;20028;-64
2021/07/28 02:38:42;;;;;;;61.70;33.25;;;;;;;;;;5055804;28;20067;-65
2021/07/28 02:41:08;;;;;;;51.25;30.42;;;;;;;;;;5061365;28;20060;-64
2021/07/28 02:43:34;;;;;;;60.45;32.47;;;;;;;;;;5059941;28;20083;-64
2021/07/28 02:46:00;;;;;;;58.08;32.53;;;;;;;;;;5057377;28;20046;-64
2021/07/28 02:48:26;;;;;;;70.22;35.63;;;;;;;;;;5056010;28;20021;-64
2021/07/28 02:50:52;;;;;;;63.67;32.90;;;;;;;;;;5057832;28;20095;-64
2021/07/28 02:53:21;;;;;;;64.13;33.53;;;;;;;;;;5057674;28;20025;-64
2021/07/28 02:55:47;;;;;;;63.40;33.85;;;;;;;;;;5061170;28;20124;-65
2021/07/28 02:58:13;;;;;;;65.47;35.13;;;;;;;;;;5057534;28;20025;-64
2021/07/28 03:00:39;;;;;;;67.32;34.72;;;;;;;;;;5058766;28;20091;-64
2021/07/28 03:03:05;;;;;;;64.85;33.63;;;;;;;;;;5056513;28;20033;-64
2021/07/28 03:05:31;;;;;;;63.35;33.35;;;;;;;;;;5065484;28;20432;-64
2021/07/28 03:07:57;;;;;;;68.60;34.40;;;;;;;;;;5057761;28;20035;-64
2021/07/28 03:10:23;;;;;;;62.85;33.38;;;;;;;;;;5056922;28;20480;-64
2021/07/28 03:12:49;;;;;;;61.60;31.17;;;;;;;;;;5058625;28;20029;-65
2021/07/28 03:15:15;;;;;;;57.92;31.83;;;;;;;;;;5062450;28;20481;-64
2021/07/28 03:17:41;;;;;;;47.17;28.10;;;;;;;;;;5060117;28;20154;-64
2021/07/28 03:20:08;;;;;;;63.85;35.50;;;;;;;;;;5056764;28;20033;-64
2021/07/28 03:22:33;;;;;;;66.68;35.83;;;;;;;;;;5056157;28;20025;-65
2021/07/28 03:24:59;;;;;;;66.82;35.67;;;;;;;;;;5058165;28;20032;-64
2021/07/28 03:27:26;;;;;;;73.68;38.20;;;;;;;;;;5058539;28;20049;-65
2021/07/28 03:29:51;;;;;;;65.22;35.35;;;;;;;;;;5060297;28;20021;-65
2021/07/28 03:32:17;;;;;;;81.03;38.08;;;;;;;;;;5059832;28;20065;-65
2021/07/28 03:34:43;;;;;;;85.40;39.05;;;;;;;;;;5058798;28;20028;-65
2021/07/28 03:37:09;;;;;;;89.32;41.20;;;;;;;;;;5054802;28;20033;-65
2021/07/28 03:39:35;;;;;;;102.22;43.60;;;;;;;;;;5059312;28;20480;-64
2021/07/28 03:42:01;;;;;;;75.05;38.45;;;;;;;;;;5058374;28;20064;-64
2021/07/28 03:44:27;;;;;;;84.13;41.88;;;;;;;;;;5057139;28;20663;-64
2021/07/28 03:46:53;;;;;;;85.43;41.17;;;;;;;;;;5058058;28;20043;-65
2021/07/28 03:49:19;;;;;;;74.07;37.22;;;;;;;;;;5058830;28;20551;-65
2021/07/28 03:51:45;;;;;;;80.63;40.90;;;;;;;;;;5057446;28;20021;-64
2021/07/28 03:54:11;;;;;;;86.03;41.10;;;;;;;;;;5060529;28;20019;-65
2021/07/28 03:56:37;;;;;;;74.03;39.83;;;;;;;;;;5061026;28;20025;-64
2021/07/28 03:59:04;;;;;;;73.78;38.10;;;;;;;;;;5055876;28;20029;-64
2021/07/28 04:01:29;;;;;;;76.05;40.05;;;;;;;;;;5053410;28;21856;-65
2021/07/28 04:03:56;;;;;;;82.57;40.67;;;;;;;;;;5062574;28;20028;-65
2021/07/28 04:06:22;;;;;;;85.30;41.72;;;;;;;;;;5060913;28;20036;-65
2021/07/28 04:08:47;;;;;;;70.53;36.83;;;;;;;;;;5058093;28;20676;-65
2021/07/28 04:11:14;;;;;;;79.45;40.90;;;;;;;;;;5055460;28;20147;-65
2021/07/28 04:13:39;;;;;;;90.93;41.92;;;;;;;;;;5058549;28;20407;-65
2021/07/28 04:16:06;;;;;;;83.20;39.90;;;;;;;;;;5059377;28;20021;-65
2021/07/28 04:18:32;;;;;;;62.47;34.78;;;;;;;;;;5062157;28;20024;-64
2021/07/28 04:20:58;;;;;;;76.80;39.42;;;;;;;;;;5058664;28;20078;-65
2021/07/28 04:23:24;;;;;;;60.53;34.78;;;;;;;;;;5056171;28;20075;-65
2021/07/28 04:25:50;;;;;;;61.08;34.47;;;;;;;;;;5059589;28;20048;-65
2021/07/28 04:28:16;;;;;;;56.22;33.50;;;;;;;;;;5058794;28;20246;-64
2021/07/28 04:30:41;;;;;;;56.83;34.13;;;;;;;;;;5035383;28;20477;-65
2021/07/28 04:33:08;;;;;;;55.70;33.78;;;;;;;;;;5063214;28;20031;-65
2021/07/28 04:35:34;;;;;;;57.42;32.88;;;;;;;;;;5057316;28;20564;-65
2021/07/28 04:38:00;;;;;;;53.58;32.28;;;;;;;;;;5053836;28;20103;-65
2021/07/28 04:40:26;;;;;;;52.45;31.67;;;;;;;;;;5055515;28;20067;-65
2021/07/28 04:42:52;;;;;;;50.85;31.55;;;;;;;;;;5061381;28;20060;-65
2021/07/28 04:45:19;;;;;;;44.20;30.98;;;;;;;;;;5062533;28;20468;-64
2021/07/28 04:47:45;;;;;;;49.50;31.47;;;;;;;;;;5060010;28;20094;-65
2021/07/28 04:50:11;;;;;;;51.72;32.08;;;;;;;;;;5052627;28;20311;-65
2021/07/28 04:52:37;;;;;;;58.15;32.90;;;;;;;;;;5055793;28;20032;-65
2021/07/28 04:55:03;;;;;;;40.65;28.85;;;;;;;;;;5054882;28;20026;-64
2021/07/28 04:57:29;;;;;;;51.35;30.58;;;;;;;;;;5061407;28;20044;-64
2021/07/28 04:59:55;;;;;;;55.70;32.00;;;;;;;;;;5053588;28;20025;-64
2021/07/28 05:02:23;;;;;;;53.03;31.38;;;;;;;;;;5057190;28;20034;-64
2021/07/28 05:04:49;;;;;;;47.05;30.55;;;;;;;;;;5060713;28;20032;-65
2021/07/28 05:07:15;;;;;;;42.83;26.85;;;;;;;;;;5060686;28;20123;-64
2021/07/28 05:09:41;;;;;;;38.28;26.90;;;;;;;;;;5052329;28;20728;-64
2021/07/28 05:12:07;;;;;;;45.80;28.48;;;;;;;;;;5064610;28;20032;-64
2021/07/28 05:14:34;;;;;;;42.17;28.30;;;;;;;;;;5056410;28;20506;-64
2021/07/28 05:17:00;;;;;;;50.95;30.75;;;;;;;;;;5060775;28;20036;-64
2021/07/28 05:19:26;;;;;;;40.42;27.92;;;;;;;;;;5056470;28;20094;-64
2021/07/28 05:21:52;;;;;;;34.15;26.40;;;;;;;;;;5062878;28;20032;-64
2021/07/28 05:24:18;;;;;;;35.55;24.65;;;;;;;;;;5052693;28;20116;-64
2021/07/28 05:26:44;;;;;;;30.27;23.80;;;;;;;;;;5056154;28;20048;-64
2021/07/28 05:29:10;;;;;;;39.72;25.80;;;;;;;;;;5061607;28;20152;-64
2021/07/28 05:31:36;;;;;;;32.38;22.95;;;;;;;;;;5058075;28;20590;-64
2021/07/28 05:34:02;;;;;;;33.05;22.30;;;;;;;;;;5053689;28;20032;-64
2021/07/28 05:36:28;;;;;;;33.40;23.77;;;;;;;;;;5055849;28;20543;-65
2021/07/28 05:38:54;;;;;;;32.05;21.60;;;;;;;;;;5058383;28;20028;-64
2021/07/28 05:41:20;;;;;;;33.30;22.25;;;;;;;;;;5052529;28;20025;-64
2021/07/28 05:43:46;;;;;;;28.42;19.75;;;;;;;;;;5054916;28;20092;-64
2021/07/28 05:46:12;;;;;;;30.33;21.35;;;;;;;;;;5054608;28;20098;-64
2021/07/28 05:48:38;;;;;;;25.35;19.90;;;;;;;;;;5061314;28;20032;-64
2021/07/28 05:51:04;;;;;;;26.58;20.23;;;;;;;;;;5039523;28;20021;-64
2021/07/28 05:53:31;;;;;;;26.00;19.85;;;;;;;;;;5059942;28;20031;-63
2021/07/28 05:55:57;;;;;;;30.00;23.30;;;;;;;;;;5059027;28;20028;-64
2021/07/28 05:58:23;;;;;;;25.38;18.02;;;;;;;;;;5066798;28;20419;-63
2021/07/28 06:00:49;;;;;;;30.85;18.15;;;;;;;;;;5058179;28;20116;-64
2021/07/28 06:03:15;;;;;;;40.17;24.33;;;;;;;;;;5067013;28;20037;-64
2021/07/28 06:05:42;;;;;;;24.65;18.17;;;;;;;;;;5067177;28;20021;-64
2021/07/28 06:08:08;;;;;;;22.00;16.77;;;;;;;;;;5065576;28;20024;-64
2021/07/28 06:10:34;;;;;;;21.40;16.85;;;;;;;;;;5064073;28;20028;-64
2021/07/28 06:13:00;;;;;;;23.38;17.00;;;;;;;;;;5069441;28;20041;-64
2021/07/28 06:15:26;;;;;;;21.70;15.20;;;;;;;;;;5061580;28;20088;-64
2021/07/28 06:17:52;;;;;;;23.60;16.02;;;;;;;;;;5062434;28;20056;-64
2021/07/28 06:20:19;;;;;;;30.70;16.55;;;;;;;;;;5063634;28;20087;-64
2021/07/28 06:22:45;;;;;;;21.70;15.52;;;;;;;;;;5064360;28;20027;-64
2021/07/28 06:25:11;;;;;;;18.63;15.40;;;;;;;;;;5058530;28;20395;-64
2021/07/28 06:27:37;;;;;;;17.90;14.88;;;;;;;;;;5056835;28;20059;-63
2021/07/28 06:30:04;;;;;;;18.70;12.85;;;;;;;;;;5058527;28;20037;-64
2021/07/28 06:32:30;;;;;;;16.37;14.10;;;;;;;;;;5062390;28;20029;-64
2021/07/28 06:34:56;;;;;;;15.18;12.57;;;;;;;;;;5059323;28;20043;-64
2021/07/28 06:37:22;;;;;;;17.63;12.18;;;;;;;;;;5057701;28;20108;-64
2021/07/28 06:39:48;;;;;;;16.50;13.15;;;;;;;;;;5058461;28;20420;-63
2021/07/28 06:42:14;;;;;;;15.23;12.50;;;;;;;;;;5062852;28;20028;-62
2021/07/28 06:44:41;;;;;;;15.68;11.40;;;;;;;;;;5063360;28;20028;-62
2021/07/28 06:47:07;;;;;;;;;;;;;;;;;;5062524;28;20045;-62
2021/07/28 06:49:33;;;;;;;18.75;9.95;;;;;;;;;;5041098;28;19908;-62
2021/07/28 06:51:59;;;;;;;16.95;11.20;;;;;;;;;;5062860;28;20114;-62
2021/07/28 06:54:25;;;;;;;15.80;10.35;;;;;;;;;;5061009;28;20514;-62
2021/07/28 06:56:51;;;;;;;15.65;11.25;;;;;;;;;;5062082;28;20036;-62
2021/07/28 06:59:17;;;;;;;17.98;11.85;;;;;;;;;;5058337;28;20033;-62
2021/07/28 07:01:45;;;;;;;15.80;11.50;;;;;;;;;;5060350;28;20036;-62
2021/07/28 07:04:11;;;;;;;21.13;11.35;;;;;;;;;;5060213;28;20143;-61
2021/07/28 07:06:37;;;;;;;16.95;9.60;;;;;;;;;;5060927;28;20491;-61
2021/07/28 07:09:03;;;;;;;17.73;11.05;;;;;;;;;;5065630;28;20037;-61
2021/07/28 07:11:29;;;;;;;18.70;10.68;;;;;;;;;;5058277;28;20033;-61
2021/07/28 07:13:55;;;;;;;16.92;10.50;;;;;;;;;;5038809;28;20155;-61
2021/07/28 07:16:21;;;;;;;14.80;9.98;;;;;;;;;;5061645;28;20032;-61
2021/07/28 07:18:47;;;;;;;17.00;11.52;;;;;;;;;;5061967;28;20036;-62
2021/07/28 07:21:13;;;;;;;20.33;10.80;;;;;;;;;;5058369;28;20369;-61
2021/07/28 07:23:39;;;;;;;14.85;10.55;;;;;;;;;;5056746;28;20110;-61
2021/07/28 07:26:05;;;;;;;15.95;9.70;;;;;;;;;;5056752;28;20090;-61
2021/07/28 07:28:33;;;;;;;17.92;8.52;;;;;;;;;;5059497;28;20103;-61
2021/07/28 07:30:59;;;;;;;15.82;8.82;;;;;;;;;;5061866;28;20483;-61
2021/07/28 07:33:41;;;;;;;13.05;8.55;;;;;;;;;;5058978;28;20139;-61
2021/07/28 07:36:17;;;;;;;13.50;8.45;;;;;;;;;;5058097;28;20025;-61
2021/07/28 07:38:43;;;;;;;13.70;8.65;;;;;;;;;;5066383;28;20086;-61
2021/07/28 07:41:09;;;;;;;13.20;9.27;;;;;;;;;;5065384;28;20044;-61
2021/07/28 07:43:35;;;;;;;11.98;9.45;;;;;;;;;;5059320;28;20048;-61
2021/07/28 07:46:01;;;;;;;15.35;9.68;;;;;;;;;;5053336;28;20048;-61
2021/07/28 07:48:27;;;;;;;15.35;9.65;;;;;;;;;;5060670;28;20391;-61
2021/07/28 07:50:54;;;;;;;10.85;8.80;;;;;;;;;;5059169;28;20123;-61
2021/07/28 07:53:20;;;;;;;11.85;8.55;;;;;;;;;;5055094;28;20024;-61
2021/07/28 07:55:46;;;;;;;16.00;8.50;;;;;;;;;;5057724;28;20021;-61
2021/07/28 07:58:12;;;;;;;12.40;9.15;;;;;;;;;;5062150;28;20043;-61
2021/07/28 08:00:38;;;;;;;15.30;9.50;;;;;;;;;;5059495;28;20020;-61
2021/07/28 08:03:04;;;;;;;11.57;8.23;;;;;;;;;;5058467;28;20021;-61
2021/07/28 08:05:30;;;;;;;9.55;8.13;;;;;;;;;;5051211;28;20029;-61
2021/07/28 08:07:56;;;;;;;16.73;8.50;;;;;;;;;;5061968;28;20044;-61
2021/07/28 08:10:22;;;;;;;12.95;8.88;;;;;;;;;;5062873;28;20035;-61
2021/07/28 08:12:48;;;;;;;13.98;9.00;;;;;;;;;;5061860;28;20118;-61
2021/07/28 08:15:15;;;;;;;13.55;8.40;;;;;;;;;;5058410;28;20048;-61
2021/07/28 08:17:41;;;;;;;13.02;7.35;;;;;;;;;;5061268;28;20074;-61
2021/07/28 08:20:07;;;;;;;13.65;8.23;;;;;;;;;;5041360;28;20040;-61
2021/07/28 08:22:33;;;;;;;14.35;7.95;;;;;;;;;;5057963;28;20082;-61
2021/07/28 08:24:59;;;;;;;14.65;8.52;;;;;;;;;;5055796;28;20051;-61
2021/07/28 08:27:27;;;;;;;13.18;8.68;;;;;;;;;;5056535;28;20067;-61
2021/07/28 08:29:54;;;;;;;16.73;8.00;;;;;;;;;;5055148;28;20021;-61
2021/07/28 08:32:20;;;;;;;15.43;7.90;;;;;;;;;;5060410;28;20028;-61
2021/07/28 08:34:46;;;;;;;10.68;8.02;;;;;;;;;;5055973;28;20279;-61
2021/07/28 08:37:12;;;;;;;11.45;7.80;;;;;;;;;;5056873;28;20036;-60
2021/07/28 08:39:38;;;;;;;14.45;8.10;;;;;;;;;;5054728;28;20056;-61
2021/07/28 08:42:05;;;;;;;16.67;8.23;;;;;;;;;;5057871;28;20024;-61
2021/07/28 08:44:31;;;;;;;;;;;;;;;;;;5060425;28;20456;-61
2021/07/28 08:46:57;;;;;;;14.80;8.43;;;;;;;;;;5055981;28;19970;-61
2021/07/28 08:49:23;;;;;;;14.70;8.63;;;;;;;;;;5057726;28;20021;-61
2021/07/28 08:51:50;;;;;;;12.38;8.18;;;;;;;;;;5056576;28;20071;-61
2021/07/28 08:54:16;;;;;;;14.82;8.30;;;;;;;;;;5054649;28;20040;-61
2021/07/28 08:56:42;;;;;;;9.55;8.23;;;;;;;;;;5059456;28;20025;-61
2021/07/28 08:59:24;;;;;;;14.25;8.80;;;;;;;;;;5054937;28;20043;-61
2021/07/28 09:01:50;;;;;;;12.60;8.50;;;;;;;;;;5053896;28;20530;-61
2021/07/28 09:04:16;;;;;;;11.32;8.43;;;;;;;;;;5061602;28;20372;-61
2021/07/28 09:06:42;;;;;;;13.02;8.38;;;;;;;;;;5057861;28;20045;-61
2021/07/28 09:09:08;;;;;;;14.65;8.75;;;;;;;;;;5059282;28;20419;-61
2021/07/28 09:11:34;;;;;;;13.77;8.48;;;;;;;;;;5052801;28;20031;-61
2021/07/28 09:14:18;;;;;;;15.80;8.35;;;;;;;;;;5057668;28;20016;-61
2021/07/28 09:16:44;;;;;;;15.43;8.15;;;;;;;;;;5058098;28;20044;-61
2021/07/28 09:19:10;;;;;;;16.98;8.80;;;;;;;;;;5060137;28;20506;-61
2021/07/28 09:21:36;;;;;;;15.48;8.07;;;;;;;;;;5059567;28;20021;-61
2021/07/28 09:24:09;;;;;;;16.92;8.02;;;;;;;;;;5056166;28;20453;-61
2021/07/28 09:26:50;;;;;;;9.68;7.38;;;;;;;;;;5057337;28;20053;-61
2021/07/28 09:29:27;;;;;;;13.80;8.20;;;;;;;;;;5062970;28;20032;-60
2021/07/28 09:31:54;;;;;;;10.13;7.95;;;;;;;;;;5055861;28;20041;-61
2021/07/28 09:34:26;;;;;;;10.90;8.40;;;;;;;;;;5055198;28;20079;-61
2021/07/28 09:36:53;;;;;;;16.45;8.50;;;;;;;;;;5056130;28;20028;-61
2021/07/28 09:39:23;;;;;;;12.65;7.95;;;;;;;;;;5064785;28;20339;-61
2021/07/28 09:41:50;;;;;;;15.02;8.20;;;;;;;;;;5054545;28;20064;-61
2021/07/28 09:44:26;;;;;;;13.90;8.60;;;;;;;;;;5060052;28;20020;-61
2021/07/28 09:47:01;;;;;;;16.00;9.00;;;;;;;;;;5059606;28;20048;-61
2021/07/28 09:49:27;;;;;;;14.90;8.20;;;;;;;;;;5061359;28;20033;-62
2021/07/28 09:51:53;;;;;;;11.88;8.00;;;;;;;;;;5054609;28;20029;-61
2021/07/28 09:54:19;;;;;;;13.15;8.45;;;;;;;;;;5054730;28;20993;-61
2021/07/28 09:56:53;;;;;;;11.52;8.38;;;;;;;;;;5052826;28;20464;-61
2021/07/28 09:59:21;;;;;;;18.65;9.35;;;;;;;;;;5058504;28;20385;-61
2021/07/28 10:01:48;;;;;;;18.85;8.85;;;;;;;;;;5057140;28;20536;-61
2021/07/28 10:04:15;;;;;;;15.82;9.65;;;;;;;;;;5060440;28;20173;-61
2021/07/28 10:06:43;;;;;;;13.82;8.98;;;;;;;;;;5053572;28;20909;-61
2021/07/28 10:09:16;;;;;;;15.10;9.20;;;;;;;;;;5056821;28;20049;-61
2021/07/28 10:11:46;;;;;;;10.77;8.13;;;;;;;;;;5055113;28;20059;-61
2021/07/28 10:14:15;;;;;;;14.70;8.85;;;;;;;;;;5055335;28;20540;-61
2021/07/28 10:16:41;;;;;;;14.27;9.38;;;;;;;;;;5056398;28;20063;-61
2021/07/28 10:19:07;;;;;;;12.57;9.60;;;;;;;;;;5055575;28;20057;-61
2021/07/28 10:21:34;;;;;;;16.25;9.52;;;;;;;;;;5053435;28;20618;-61
2021/07/28 10:24:01;;;;;;;15.05;9.45;;;;;;;;;;5054695;28;20120;-61
2021/07/28 10:26:27;;;;;;;17.80;9.52;;;;;;;;;;5056808;28;20094;-61
2021/07/28 10:28:54;;;;;;;15.38;10.07;;;;;;;;;;5057272;28;20040;-62
2021/07/28 10:31:21;;;;;;;21.17;10.60;;;;;;;;;;5054086;28;20056;-61
2021/07/28 10:33:49;;;;;;;17.85;11.38;;;;;;;;;;5054423;28;20089;-61
2021/07/28 10:36:15;;;;;;;14.27;10.13;;;;;;;;;;5056479;28;20029;-61
2021/07/28 10:39:10;;;;;;;14.40;10.45;;;;;;;;;;5060763;28;20107;-61
2021/07/28 10:41:36;;;;;;;17.67;11.45;;;;;;;;;;5037240;28;20045;-60
2021/07/28 10:44:09;;;;;;;18.00;12.88;;;;;;;;;;5058625;28;20542;-60
2021/07/28 10:46:53;;;;;;;17.17;11.57;;;;;;;;;;5059718;28;20380;-60
2021/07/28 10:49:38;;;;;;;16.70;11.95;;;;;;;;;;5060583;28;20550;-60
2021/07/28 10:52:05;;;;;;;17.05;12.45;;;;;;;;;;5065351;28;20481;-60
2021/07/28 10:54:49;;;;;;;20.30;12.73;;;;;;;;;;5057431;28;20480;-60
2021/07/28 10:57:54;;;;;;;14.88;12.90;;;;;;;;;;5067657;28;20801;-60
2021/07/28 11:00:38;;;;;;;16.45;12.40;;;;;;;;;;5060199;28;21866;-61
2021/07/28 11:03:07;;;;;;;17.65;12.85;;;;;;;;;;5059537;28;20059;-61
2021/07/28 11:05:35;;;;;;;22.55;13.32;;;;;;;;;;5064806;28;20044;-60
2021/07/28 11:08:06;;;;;;;20.52;13.20;;;;;;;;;;5057051;28;20036;-61
2021/07/28 11:10:52;;;;;;;15.35;12.27;;;;;;;;;;5062998;28;20053;-60
2021/07/28 11:13:19;;;;;;;16.45;12.57;;;;;;;;;;5062266;28;20078;-60
2021/07/28 11:16:14;;;;;;;19.48;11.80;;;;;;;;;;5060299;28;20064;-60
2021/07/28 11:18:41;;;;;;;16.42;12.02;;;;;;;;;;5044305;28;20044;-60
2021/07/28 11:21:21;;;;;;;15.48;11.68;;;;;;;;;;5059752;28;20361;-61
2021/07/28 11:23:51;;;;;;;16.50;11.57;;;;;;;;;;5055482;28;20041;-60
2021/07/28 11:26:19;;;;;;;16.55;11.73;;;;;;;;;;5057629;28;20075;-61
2021/07/28 11:28:45;;;;;;;17.63;11.65;;;;;;;;;;5061756;28;20457;-60
2021/07/28 11:31:11;;;;;;;14.23;11.10;;;;;;;;;;5058473;28;20025;-60
2021/07/28 11:33:39;;;;;;;12.52;9.93;;;;;;;;;;5064350;28;20023;-61
2021/07/28 11:36:06;;;;;;;;;;;;;;;;;;5058915;28;20033;-60
2021/07/28 11:38:38;;;;;;;16.85;10.10;;;;;;;;;;5060419;28;19912;-60
2021/07/28 11:41:06;;;;;;;17.27;9.98;;;;;;;;;;5061928;28;20048;-60
2021/07/28 11:43:36;;;;;;;17.88;10.32;;;;;;;;;;5063658;28;20028;-61
2021/07/28 11:46:21;;;;;;;16.38;9.88;;;;;;;;;;5059078;28;20691;-61
2021/07/28 11:48:57;;;;;;;13.52;10.05;;;;;;;;;;5062278;28;20065;-62
2021/07/28 11:51:25;;;;;;;13.23;9.35;;;;;;;;;;5059475;28;20060;-61
2021/07/28 11:53:51;;;;;;;11.93;9.68;;;;;;;;;;5058972;28;20506;-61
2021/07/28 11:56:17;;;;;;;9.60;8.27;;;;;;;;;;5061464;28;20021;-61
2021/07/28 11:58:44;;;;;;;11.52;8.50;;;;;;;;;;5061704;28;20463;-61
2021/07/28 12:01:30;;;;;;;13.02;8.88;;;;;;;;;;5056196;28;20044;-61
2021/07/28 12:04:07;;;;;;;10.18;7.93;;;;;;;;;;5057236;28;20021;-62
2021/07/28 12:06:34;;;;;;;10.05;7.85;;;;;;;;;;5062441;28;20032;-62
2021/07/28 12:09:19;;;;;;;9.82;8.05;;;;;;;;;;5059390;28;20048;-61
2021/07/28 12:11:52;;;;;;;8.68;7.35;;;;;;;;;;5060164;28;20388;-61
2021/07/28 12:14:38;;;;;;;10.98;6.68;;;;;;;;;;5057197;28;20025;-61
2021/07/28 12:17:20;;;;;;;8.00;6.50;;;;;;;;;;5063386;28;20071;-61
2021/07/28 12:20:00;;;;;;;8.63;7.32;;;;;;;;;;5061335;28;20033;-62
2021/07/28 12:22:27;;;;;;;7.88;6.78;;;;;;;;;;5057343;28;20648;-62
2021/07/28 12:24:53;;;;;;;8.05;6.20;;;;;;;;;;5060202;28;20082;-61
2021/07/28 12:27:25;;;;;;;7.78;5.88;;;;;;;;;;5055926;28;20072;-61
2021/07/28 12:30:17;;;;;;;6.97;5.97;;;;;;;;;;5052346;28;20075;-61
2021/07/28 12:32:44;;;;;;;8.10;6.18;;;;;;;;;;5061488;28;20028;-61
2021/07/28 12:35:33;;;;;;;7.35;5.38;;;;;;;;;;5062549;28;20052;-61
2021/07/28 12:38:07;;;;;;;5.50;4.97;;;;;;;;;;5046770;28;20044;-62
2021/07/28 12:40:33;;;;;;;9.82;5.65;;;;;;;;;;5055423;28;20044;-61
2021/07/28 12:42:59;;;;;;;5.68;5.03;;;;;;;;;;5058430;28;20032;-61
2021/07/28 12:45:25;;;;;;;6.18;4.97;;;;;;;;;;5055800;28;20021;-61
2021/07/28 12:47:51;;;;;;;5.85;4.70;;;;;;;;;;5059518;28;20500;-62
2021/07/28 12:50:18;;;;;;;8.52;5.32;;;;;;;;;;5059405;28;20070;-62
2021/07/28 12:52:44;;;;;;;7.07;4.95;;;;;;;;;;5059123;28;20028;-62
2021/07/28 12:55:10;;;;;;;5.55;4.97;;;;;;;;;;5059666;28;20066;-62
2021/07/28 12:57:36;;;;;;;7.07;4.80;;;;;;;;;;5054379;28;20029;-62
2021/07/28 13:00:03;;;;;;;5.32;4.20;;;;;;;;;;5055571;28;20028;-62
2021/07/28 13:02:29;;;;;;;5.35;4.70;;;;;;;;;;5054859;28;20103;-61
2021/07/28 13:04:57;;;;;;;7.18;4.50;;;;;;;;;;5059420;28;20140;-61
2021/07/28 13:07:39;;;;;;;6.85;5.00;;;;;;;;;;5062356;28;20052;-61
2021/07/28 13:10:05;;;;;;;5.30;4.55;;;;;;;;;;5057202;28;20495;-60
2021/07/28 13:12:31;;;;;;;5.63;4.40;;;;;;;;;;5062305;28;20056;-61
2021/07/28 13:14:57;;;;;;;10.15;5.55;;;;;;;;;;5057683;28;20053;-60
2021/07/28 13:17:23;;;;;;;7.90;4.47;;;;;;;;;;5064313;28;20081;-61
2021/07/28 13:19:49;;;;;;;8.02;5.20;;;;;;;;;;5056427;28;20024;-61
2021/07/28 13:22:15;;;;;;;10.10;5.32;;;;;;;;;;5057551;28;20047;-61
2021/07/28 13:24:41;;;;;;;6.00;5.35;;;;;;;;;;5035536;28;20031;-61
2021/07/28 13:27:07;;;;;;;7.18;5.68;;;;;;;;;;5054842;28;20115;-60
2021/07/28 13:29:33;;;;;;;7.05;4.88;;;;;;;;;;5055623;28;20596;-60
2021/07/28 20:27:39;;;;;;;9.93;6.78;;;;;;;;;;5054862;28;20438;-61
2021/07/28 20:30:06;;;;;;;11.02;6.93;;;;;;;;;;5054274;28;20032;-61
2021/07/28 20:32:50;;;;;;;10.50;7.75;;;;;;;;;;5057110;28;20032;-61
2021/07/28 20:35:16;;;;;;;13.73;7.60;;;;;;;;;;5053751;28;20024;-62
2021/07/28 20:37:42;;;;;;;10.80;6.97;;;;;;;;;;5053535;28;20040;-61
2021/07/28 20:40:08;;;;;;;21.52;7.78;;;;;;;;;;5054754;28;20438;-61
2021/07/28 20:42:35;;;;;;;9.38;7.55;;;;;;;;;;5038715;28;20029;-61
2021/07/28 20:45:01;;;;;;;9.88;7.07;;;;;;;;;;5037183;28;20021;-61
2021/07/28 20:47:27;;;;;;;15.15;7.15;;;;;;;;;;5038099;28;20136;-61
2021/07/28 20:49:53;;;;;;;7.90;6.75;;;;;;;;;;5037469;28;20112;-61
2021/07/28 20:52:19;;;;;;;10.13;6.63;;;;;;;;;;5037189;28;20029;-61
2021/07/28 20:54:46;;;;;;;10.02;6.90;;;;;;;;;;5034402;28;20022;-61
2021/07/28 20:57:12;;;;;;;14.07;7.32;;;;;;;;;;5035687;28;20476;-62
2021/07/28 20:59:38;;;;;;;9.00;7.03;;;;;;;;;;5034027;28;20160;-61
2021/07/28 21:02:08;;;;;;;13.70;6.80;;;;;;;;;;5041561;28;20049;-61
2021/07/28 21:04:34;;;;;;;8.60;6.63;;;;;;;;;;5036130;28;20533;-61
2021/07/28 21:07:00;;;;;;;10.88;6.80;;;;;;;;;;5034356;28;20574;-61
2021/07/28 21:09:26;;;;;;;10.88;7.13;;;;;;;;;;5037290;28;20114;-62
2021/07/28 21:11:53;;;;;;;11.75;6.70;;;;;;;;;;5042119;28;20044;-62
2021/07/28 21:14:19;;;;;;;9.30;7.38;;;;;;;;;;5038034;28;20029;-62
2021/07/28 21:16:45;;;;;;;18.65;7.75;;;;;;;;;;5035738;28;20039;-62
2021/07/28 21:19:11;;;;;;;9.43;7.47;;;;;;;;;;5035210;28;20466;-62
2021/07/28 21:21:37;;;;;;;11.32;7.00;;;;;;;;;;5036063;28;20084;-62
2021/07/28 21:24:05;;;;;;;11.05;6.70;;;;;;;;;;5038614;28;20029;-63
2021/07/28 21:26:32;;;;;;;15.00;7.45;;;;;;;;;;5036960;28;20111;-63
2021/07/28 21:28:58;;;;;;;9.25;7.40;;;;;;;;;;5041058;28;20630;-63
2021/07/28 21:31:25;;;;;;;9.80;6.85;;;;;;;;;;5035775;28;20041;-63